Fleming Neon, Kentucky
Current Conditions -  °F | °C
As of 4:55 AM on Friday 19 Dec 2014 (Local Time) from KLNP Reporting Station
Overcast Overcast  
Wind Chill: 32°   Ceiling: 4400
Heat Index: 32°   Visibility: 10mi
Dew Point: 27°   Wind: 3mph
Humidity: 80%   Direction: 340°NNW
Pressure: 30.12"   Gusts: NA
Location:  37.216°N, 82.7112°W
Report Text: KLNP 190955Z AUTO 34003KT 10SM OVC044 00/M03 A3012 RMK AO2
Loading
Personal Weather Stations






























Interactive Weather Map New forecast layout! Learn more

10-Day Weather Forecast

Advertisements
Track Severe Weather on mobile